sensor_id;sensor_type;location;lat;lon;timestamp;pressure;altitude;pressure_sealevel;temperature;humidity
498;BME280;39559;48.630;9.162;2022-09-09T00:07:53;97145.63;;;10.30;100.00
498;BME280;39559;48.630;9.162;2022-09-09T00:10:30;97144.50;;;10.16;100.00
498;BME280;39559;48.630;9.162;2022-09-09T00:13:23;97144.97;;;10.06;100.00
498;BME280;39559;48.630;9.162;2022-09-09T00:16:14;97131.69;;;10.13;100.00
498;BME280;39559;48.630;9.162;2022-09-09T00:21:17;97122.13;;;10.14;100.00
498;BME280;39559;48.630;9.162;2022-09-09T00:23:54;97128.03;;;10.17;100.00
498;BME280;39559;48.630;9.162;2022-09-09T00:26:44;97124.72;;;10.14;100.00
498;BME280;39559;48.630;9.162;2022-09-09T00:31:49;97113.91;;;10.23;100.00
498;BME280;39559;48.630;9.162;2022-09-09T00:34:21;97122.25;;;10.30;100.00
498;BME280;39559;48.630;9.162;2022-09-09T00:36:56;97121.34;;;10.31;100.00
498;BME280;39559;48.630;9.162;2022-09-09T00:39:42;97126.56;;;10.31;100.00
498;BME280;39559;48.630;9.162;2022-09-09T00:42:26;97131.00;;;10.27;100.00
498;BME280;39559;48.630;9.162;2022-09-09T00:45:23;97133.59;;;10.27;100.00
498;BME280;39559;48.630;9.162;2022-09-09T00:48:13;97133.22;;;10.36;100.00
498;BME280;39559;48.630;9.162;2022-09-09T00:50:48;97132.16;;;10.41;100.00
498;BME280;39559;48.630;9.162;2022-09-09T00:58:01;97135.03;;;10.34;100.00
498;BME280;39559;48.630;9.162;2022-09-09T01:00:29;97134.59;;;10.44;100.00
498;BME280;39559;48.630;9.162;2022-09-09T01:11:22;97135.97;;;10.33;100.00
498;BME280;39559;48.630;9.162;2022-09-09T01:14:01;97130.34;;;10.43;100.00
498;BME280;39559;48.630;9.162;2022-09-09T01:16:32;97128.78;;;10.19;100.00
498;BME280;39559;48.630;9.162;2022-09-09T01:27:18;97137.97;;;10.27;100.00
498;BME280;39559;48.630;9.162;2022-09-09T01:29:45;97138.59;;;10.13;100.00
498;BME280;39559;48.630;9.162;2022-09-09T01:32:39;97145.63;;;10.11;100.00
498;BME280;39559;48.630;9.162;2022-09-09T01:37:56;97145.16;;;10.03;100.00
498;BME280;39559;48.630;9.162;2022-09-09T01:40:21;97143.78;;;10.13;100.00
498;BME280;39559;48.630;9.162;2022-09-09T01:43:38;97134.84;;;10.01;100.00
498;BME280;39559;48.630;9.162;2022-09-09T01:46:04;97131.59;;;9.96;100.00
498;BME280;39559;48.630;9.162;2022-09-09T01:48:30;97145.56;;;9.93;100.00
498;BME280;39559;48.630;9.162;2022-09-09T01:50:56;97152.06;;;10.02;100.00
498;BME280;39559;48.630;9.162;2022-09-09T01:53:22;97148.16;;;10.12;100.00
498;BME280;39559;48.630;9.162;2022-09-09T02:02:24;97155.34;;;10.06;100.00
498;BME280;39559;48.630;9.162;2022-09-09T02:07:42;97148.41;;;9.87;100.00
498;BME280;39559;48.630;9.162;2022-09-09T02:10:33;97147.00;;;9.80;100.00
498;BME280;39559;48.630;9.162;2022-09-09T02:13:08;97150.94;;;9.89;100.00
498;BME280;39559;48.630;9.162;2022-09-09T02:15:40;97150.13;;;9.88;100.00
498;BME280;39559;48.630;9.162;2022-09-09T02:18:30;97146.03;;;10.02;100.00
498;BME280;39559;48.630;9.162;2022-09-09T02:20:59;97142.38;;;9.68;100.00
498;BME280;39559;48.630;9.162;2022-09-09T02:23:28;97151.41;;;9.59;100.00
498;BME280;39559;48.630;9.162;2022-09-09T02:25:57;97143.16;;;9.70;100.00
498;BME280;39559;48.630;9.162;2022-09-09T02:28:25;97133.81;;;9.66;100.00
498;BME280;39559;48.630;9.162;2022-09-09T02:31:27;97142.41;;;9.87;100.00
498;BME280;39559;48.630;9.162;2022-09-09T02:34:14;97136.09;;;9.73;100.00
498;BME280;39559;48.630;9.162;2022-09-09T02:36:42;97128.22;;;9.75;100.00
498;BME280;39559;48.630;9.162;2022-09-09T02:39:17;97145.75;;;9.70;100.00
498;BME280;39559;48.630;9.162;2022-09-09T02:41:43;97150.31;;;9.84;100.00
498;BME280;39559;48.630;9.162;2022-09-09T02:44:10;97148.41;;;9.68;100.00
498;BME280;39559;48.630;9.162;2022-09-09T02:49:18;97150.66;;;9.76;100.00
498;BME280;39559;48.630;9.162;2022-09-09T02:52:08;97152.91;;;9.65;100.00
498;BME280;39559;48.630;9.162;2022-09-09T02:58:08;97147.31;;;9.74;100.00
498;BME280;39559;48.630;9.162;2022-09-09T03:00:37;97140.13;;;9.60;100.00
498;BME280;39559;48.630;9.162;2022-09-09T03:03:08;97141.56;;;9.47;100.00
498;BME280;39559;48.630;9.162;2022-09-09T03:05:34;97142.16;;;9.53;100.00
498;BME280;39559;48.630;9.162;2022-09-09T03:08:02;97143.94;;;9.51;100.00
498;BME280;39559;48.630;9.162;2022-09-09T03:10:27;97140.41;;;9.54;100.00
498;BME280;39559;48.630;9.162;2022-09-09T03:12:53;97133.06;;;9.64;100.00
498;BME280;39559;48.630;9.162;2022-09-09T03:15:18;97138.09;;;9.67;100.00
498;BME280;39559;48.630;9.162;2022-09-09T03:19:20;97147.06;;;9.59;100.00
498;BME280;39559;48.630;9.162;2022-09-09T03:21:47;97141.81;;;9.61;100.00
498;BME280;39559;48.630;9.162;2022-09-09T03:24:13;97144.19;;;9.66;100.00
498;BME280;39559;48.630;9.162;2022-09-09T03:26:40;97155.25;;;9.69;100.00
498;BME280;39559;48.630;9.162;2022-09-09T03:29:10;97154.13;;;9.56;100.00
498;BME280;39559;48.630;9.162;2022-09-09T03:31:38;97146.34;;;9.56;100.00
498;BME280;39559;48.630;9.162;2022-09-09T03:34:04;97147.06;;;9.59;100.00
498;BME280;39559;48.630;9.162;2022-09-09T03:36:31;97151.34;;;9.60;100.00
498;BME280;39559;48.630;9.162;2022-09-09T03:38:58;97158.78;;;9.48;100.00
498;BME280;39559;48.630;9.162;2022-09-09T03:43:22;97161.53;;;9.45;100.00
498;BME280;39559;48.630;9.162;2022-09-09T03:45:48;97156.91;;;9.72;100.00
498;BME280;39559;48.630;9.162;2022-09-09T03:48:17;97144.59;;;9.56;100.00
498;BME280;39559;48.630;9.162;2022-09-09T03:50:49;97150.78;;;9.54;100.00
498;BME280;39559;48.630;9.162;2022-09-09T03:53:19;97148.25;;;9.52;100.00
498;BME280;39559;48.630;9.162;2022-09-09T03:55:47;97145.22;;;9.43;100.00
498;BME280;39559;48.630;9.162;2022-09-09T03:58:50;97144.69;;;9.34;100.00
498;BME280;39559;48.630;9.162;2022-09-09T04:01:20;97143.75;;;9.37;100.00
498;BME280;39559;48.630;9.162;2022-09-09T04:03:46;97146.94;;;9.42;100.00
498;BME280;39559;48.630;9.162;2022-09-09T04:07:17;97146.06;;;9.43;100.00
498;BME280;39559;48.630;9.162;2022-09-09T04:09:42;97145.53;;;9.55;100.00
498;BME280;39559;48.630;9.162;2022-09-09T04:12:08;97141.53;;;9.67;100.00
498;BME280;39559;48.630;9.162;2022-09-09T04:14:33;97148.13;;;9.55;100.00
498;BME280;39559;48.630;9.162;2022-09-09T04:16:59;97137.69;;;9.57;100.00
498;BME280;39559;48.630;9.162;2022-09-09T04:19:25;97149.06;;;9.53;100.00
498;BME280;39559;48.630;9.162;2022-09-09T04:21:51;97149.28;;;9.48;100.00
498;BME280;39559;48.630;9.162;2022-09-09T04:24:17;97154.47;;;9.48;100.00
498;BME280;39559;48.630;9.162;2022-09-09T04:26:42;97147.19;;;9.56;100.00
498;BME280;39559;48.630;9.162;2022-09-09T04:31:17;97149.38;;;9.66;100.00
498;BME280;39559;48.630;9.162;2022-09-09T04:33:44;97145.13;;;9.65;100.00
498;BME280;39559;48.630;9.162;2022-09-09T04:36:09;97146.00;;;9.64;100.00
498;BME280;39559;48.630;9.162;2022-09-09T04:38:35;97155.34;;;9.68;100.00
498;BME280;39559;48.630;9.162;2022-09-09T04:41:01;97160.31;;;9.72;100.00
498;BME280;39559;48.630;9.162;2022-09-09T04:43:27;97152.13;;;9.63;100.00
498;BME280;39559;48.630;9.162;2022-09-09T04:45:52;97155.84;;;9.76;100.00
498;BME280;39559;48.630;9.162;2022-09-09T04:48:19;97148.19;;;9.73;100.00
498;BME280;39559;48.630;9.162;2022-09-09T04:50:57;97150.53;;;9.79;100.00
498;BME280;39559;48.630;9.162;2022-09-09T04:55:14;97148.91;;;9.76;100.00
498;BME280;39559;48.630;9.162;2022-09-09T04:57:40;97154.66;;;9.83;100.00
498;BME280;39559;48.630;9.162;2022-09-09T05:00:07;97152.72;;;9.88;100.00
498;BME280;39559;48.630;9.162;2022-09-09T05:02:37;97150.81;;;9.92;100.00
498;BME280;39559;48.630;9.162;2022-09-09T05:05:04;97154.59;;;9.85;100.00
498;BME280;39559;48.630;9.162;2022-09-09T05:07:30;97154.66;;;9.83;100.00
498;BME280;39559;48.630;9.162;2022-09-09T05:09:56;97158.72;;;9.70;100.00
498;BME280;39559;48.630;9.162;2022-09-09T05:12:22;97155.56;;;9.63;100.00
498;BME280;39559;48.630;9.162;2022-09-09T05:14:51;97157.09;;;9.67;100.00
498;BME280;39559;48.630;9.162;2022-09-09T05:19:11;97167.00;;;9.78;100.00
498;BME280;39559;48.630;9.162;2022-09-09T05:21:36;97161.44;;;9.86;100.00
498;BME280;39559;48.630;9.162;2022-09-09T05:24:02;97166.38;;;9.92;100.00
498;BME280;39559;48.630;9.162;2022-09-09T05:26:28;97160.69;;;9.84;100.00
498;BME280;39559;48.630;9.162;2022-09-09T05:28:55;97167.97;;;9.94;100.00
498;BME280;39559;48.630;9.162;2022-09-09T05:31:21;97165.13;;;10.01;100.00
498;BME280;39559;48.630;9.162;2022-09-09T05:33:47;97168.69;;;9.98;100.00
498;BME280;39559;48.630;9.162;2022-09-09T05:36:16;97175.28;;;10.05;100.00
498;BME280;39559;48.630;9.162;2022-09-09T05:38:43;97183.34;;;10.18;100.00
498;BME280;39559;48.630;9.162;2022-09-09T05:43:10;97178.03;;;10.21;100.00
498;BME280;39559;48.630;9.162;2022-09-09T05:45:36;97174.91;;;10.33;100.00
498;BME280;39559;48.630;9.162;2022-09-09T05:48:01;97187.72;;;10.36;100.00
498;BME280;39559;48.630;9.162;2022-09-09T05:50:27;97182.47;;;10.38;100.00
498;BME280;39559;48.630;9.162;2022-09-09T05:52:54;97183.44;;;10.35;100.00
498;BME280;39559;48.630;9.162;2022-09-09T05:55:19;97186.38;;;10.47;100.00
498;BME280;39559;48.630;9.162;2022-09-09T05:57:48;97178.53;;;10.48;100.00
498;BME280;39559;48.630;9.162;2022-09-09T06:00:14;97185.31;;;10.51;100.00
498;BME280;39559;48.630;9.162;2022-09-09T06:02:41;97181.00;;;10.51;100.00
498;BME280;39559;48.630;9.162;2022-09-09T06:07:07;97183.69;;;10.67;100.00
498;BME280;39559;48.630;9.162;2022-09-09T06:09:32;97181.56;;;10.75;100.00
498;BME280;39559;48.630;9.162;2022-09-09T06:11:58;97176.38;;;10.75;100.00
498;BME280;39559;48.630;9.162;2022-09-09T06:14:24;97178.19;;;10.73;100.00
498;BME280;39559;48.630;9.162;2022-09-09T06:16:51;97183.72;;;10.85;100.00
498;BME280;39559;48.630;9.162;2022-09-09T06:19:16;97184.94;;;10.95;100.00
498;BME280;39559;48.630;9.162;2022-09-09T06:21:42;97184.19;;;11.10;100.00
498;BME280;39559;48.630;9.162;2022-09-09T06:24:10;97178.50;;;11.02;100.00
498;BME280;39559;48.630;9.162;2022-09-09T06:26:39;97184.88;;;11.14;100.00
498;BME280;39559;48.630;9.162;2022-09-09T06:31:07;97177.91;;;11.32;100.00
498;BME280;39559;48.630;9.162;2022-09-09T06:33:35;97187.31;;;11.34;100.00
498;BME280;39559;48.630;9.162;2022-09-09T06:36:03;97185.91;;;11.62;100.00
498;BME280;39559;48.630;9.162;2022-09-09T06:38:31;97180.41;;;11.51;100.00
498;BME280;39559;48.630;9.162;2022-09-09T06:40:59;97187.75;;;11.60;100.00
498;BME280;39559;48.630;9.162;2022-09-09T06:43:25;97183.41;;;11.61;100.00
498;BME280;39559;48.630;9.162;2022-09-09T06:45:59;97183.81;;;11.69;100.00
498;BME280;39559;48.630;9.162;2022-09-09T06:48:26;97186.56;;;11.66;100.00
498;BME280;39559;48.630;9.162;2022-09-09T06:51:07;97183.41;;;11.77;100.00
498;BME280;39559;48.630;9.162;2022-09-09T06:55:03;97182.69;;;12.08;100.00
498;BME280;39559;48.630;9.162;2022-09-09T06:57:29;97195.03;;;12.36;100.00
498;BME280;39559;48.630;9.162;2022-09-09T06:59:54;97188.66;;;12.58;100.00
498;BME280;39559;48.630;9.162;2022-09-09T07:02:20;97182.69;;;12.72;100.00
498;BME280;39559;48.630;9.162;2022-09-09T07:04:46;97176.88;;;12.82;100.00
498;BME280;39559;48.630;9.162;2022-09-09T07:07:12;97182.56;;;12.89;100.00
498;BME280;39559;48.630;9.162;2022-09-09T07:09:40;97189.59;;;13.03;100.00
498;BME280;39559;48.630;9.162;2022-09-09T07:12:06;97194.00;;;13.17;100.00
498;BME280;39559;48.630;9.162;2022-09-09T07:14:32;97191.47;;;13.31;100.00
498;BME280;39559;48.630;9.162;2022-09-09T07:19:01;97181.66;;;13.51;100.00
498;BME280;39559;48.630;9.162;2022-09-09T07:21:29;97173.66;;;13.54;100.00
498;BME280;39559;48.630;9.162;2022-09-09T07:23:55;97183.16;;;13.69;100.00
498;BME280;39559;48.630;9.162;2022-09-09T07:26:24;97178.69;;;13.86;100.00
498;BME280;39559;48.630;9.162;2022-09-09T07:28:50;97180.94;;;14.06;100.00
498;BME280;39559;48.630;9.162;2022-09-09T07:31:21;97180.56;;;14.12;100.00
498;BME280;39559;48.630;9.162;2022-09-09T07:33:48;97172.25;;;14.06;100.00
498;BME280;39559;48.630;9.162;2022-09-09T07:36:25;97171.66;;;14.15;100.00
498;BME280;39559;48.630;9.162;2022-09-09T07:38:56;97174.34;;;14.28;100.00
498;BME280;39559;48.630;9.162;2022-09-09T07:42:59;97185.53;;;14.58;100.00
498;BME280;39559;48.630;9.162;2022-09-09T07:45:26;97186.84;;;14.78;100.00
498;BME280;39559;48.630;9.162;2022-09-09T07:47:54;97191.66;;;14.99;100.00
498;BME280;39559;48.630;9.162;2022-09-09T07:50:23;97194.63;;;15.20;100.00
498;BME280;39559;48.630;9.162;2022-09-09T07:52:50;97195.28;;;15.36;100.00
498;BME280;39559;48.630;9.162;2022-09-09T07:55:16;97191.97;;;15.60;100.00
498;BME280;39559;48.630;9.162;2022-09-09T07:57:41;97196.47;;;15.58;100.00
498;BME280;39559;48.630;9.162;2022-09-09T08:00:07;97198.03;;;15.61;100.00
498;BME280;39559;48.630;9.162;2022-09-09T08:02:33;97201.69;;;15.58;100.00
498;BME280;39559;48.630;9.162;2022-09-09T08:06:59;97206.78;;;15.74;100.00
498;BME280;39559;48.630;9.162;2022-09-09T08:09:25;97200.81;;;15.85;100.00
498;BME280;39559;48.630;9.162;2022-09-09T08:11:54;97196.94;;;15.90;100.00
498;BME280;39559;48.630;9.162;2022-09-09T08:14:21;97200.06;;;16.08;100.00
498;BME280;39559;48.630;9.162;2022-09-09T08:16:49;97209.25;;;16.14;100.00
498;BME280;39559;48.630;9.162;2022-09-09T08:19:16;97208.72;;;16.22;100.00
498;BME280;39559;48.630;9.162;2022-09-09T08:21:43;97215.00;;;16.32;100.00
498;BME280;39559;48.630;9.162;2022-09-09T08:24:10;97224.25;;;16.62;100.00
498;BME280;39559;48.630;9.162;2022-09-09T08:26:39;97211.00;;;16.76;100.00
498;BME280;39559;48.630;9.162;2022-09-09T08:30:55;97208.06;;;16.81;100.00
498;BME280;39559;48.630;9.162;2022-09-09T08:33:20;97217.06;;;16.89;100.00
498;BME280;39559;48.630;9.162;2022-09-09T08:35:52;97203.16;;;17.00;100.00
498;BME280;39559;48.630;9.162;2022-09-09T08:38:18;97203.09;;;17.13;100.00
498;BME280;39559;48.630;9.162;2022-09-09T08:40:47;97200.69;;;17.34;100.00
498;BME280;39559;48.630;9.162;2022-09-09T08:43:15;97207.34;;;17.38;100.00
498;BME280;39559;48.630;9.162;2022-09-09T08:46:24;97224.50;;;16.96;100.00
498;BME280;39559;48.630;9.162;2022-09-09T08:48:58;97219.31;;;16.70;100.00
498;BME280;39559;48.630;9.162;2022-09-09T08:51:27;97223.09;;;16.66;100.00
498;BME280;39559;48.630;9.162;2022-09-09T08:54:58;97224.47;;;16.59;100.00
498;BME280;39559;48.630;9.162;2022-09-09T08:57:28;97224.88;;;16.65;100.00
498;BME280;39559;48.630;9.162;2022-09-09T08:59:56;97225.03;;;16.75;100.00
498;BME280;39559;48.630;9.162;2022-09-09T09:05:21;97222.47;;;17.23;100.00
498;BME280;39559;48.630;9.162;2022-09-09T09:13:17;97208.41;;;17.82;100.00
498;BME280;39559;48.630;9.162;2022-09-09T09:15:48;97206.44;;;18.09;100.00
498;BME280;39559;48.630;9.162;2022-09-09T09:18:51;97205.59;;;18.31;100.00
498;BME280;39559;48.630;9.162;2022-09-09T09:21:49;97212.63;;;18.19;98.29
498;BME280;39559;48.630;9.162;2022-09-09T09:24:18;97206.41;;;18.42;99.58
498;BME280;39559;48.630;9.162;2022-09-09T09:26:44;97204.03;;;19.06;95.69
498;BME280;39559;48.630;9.162;2022-09-09T09:29:15;97204.44;;;19.22;95.23
498;BME280;39559;48.630;9.162;2022-09-09T09:31:56;97197.84;;;19.28;94.07
498;BME280;39559;48.630;9.162;2022-09-09T09:34:23;97195.19;;;19.28;94.14
498;BME280;39559;48.630;9.162;2022-09-09T09:36:59;97186.72;;;19.03;77.24
498;BME280;39559;48.630;9.162;2022-09-09T09:39:31;97186.81;;;18.35;73.77
498;BME280;39559;48.630;9.162;2022-09-09T09:42:53;97180.03;;;18.21;73.11
498;BME280;39559;48.630;9.162;2022-09-09T09:48:05;97179.53;;;18.50;72.52
498;BME280;39559;48.630;9.162;2022-09-09T09:50:32;97180.56;;;18.70;78.34
498;BME280;39559;48.630;9.162;2022-09-09T09:53:06;97176.72;;;19.39;69.97
498;BME280;39559;48.630;9.162;2022-09-09T09:55:50;97180.22;;;19.07;76.79
498;BME280;39559;48.630;9.162;2022-09-09T09:58:18;97175.44;;;19.12;79.92
498;BME280;39559;48.630;9.162;2022-09-09T10:00:50;97172.16;;;18.76;83.77
498;BME280;39559;48.630;9.162;2022-09-09T10:03:26;97175.50;;;18.78;82.29
498;BME280;39559;48.630;9.162;2022-09-09T10:06:45;97161.47;;;19.01;90.21
498;BME280;39559;48.630;9.162;2022-09-09T10:09:29;97164.66;;;19.36;86.91
498;BME280;39559;48.630;9.162;2022-09-09T10:12:03;97153.53;;;19.54;84.10
498;BME280;39559;48.630;9.162;2022-09-09T10:17:29;97162.59;;;19.82;86.42
498;BME280;39559;48.630;9.162;2022-09-09T10:22:45;97158.47;;;19.68;79.67
498;BME280;39559;48.630;9.162;2022-09-09T10:31:04;97143.66;;;19.98;81.04
498;BME280;39559;48.630;9.162;2022-09-09T10:36:23;97140.94;;;19.58;68.88
498;BME280;39559;48.630;9.162;2022-09-09T10:44:34;97141.34;;;19.32;67.80
498;BME280;39559;48.630;9.162;2022-09-09T10:47:23;97144.66;;;18.80;65.65
498;BME280;39559;48.630;9.162;2022-09-09T10:57:37;97153.84;;;18.31;77.47
498;BME280;39559;48.630;9.162;2022-09-09T11:00:13;97147.97;;;18.50;77.06
498;BME280;39559;48.630;9.162;2022-09-09T11:02:41;97142.38;;;18.44;74.12
498;BME280;39559;48.630;9.162;2022-09-09T11:05:18;97147.41;;;18.24;74.64
498;BME280;39559;48.630;9.162;2022-09-09T11:08:32;97156.88;;;18.27;69.92
498;BME280;39559;48.630;9.162;2022-09-09T11:13:10;97177.84;;;16.75;89.06
498;BME280;39559;48.630;9.162;2022-09-09T11:15:47;97175.81;;;16.30;98.78
498;BME280;39559;48.630;9.162;2022-09-09T11:18:38;97192.19;;;15.70;100.00
498;BME280;39559;48.630;9.162;2022-09-09T11:21:15;97205.78;;;15.62;100.00
498;BME280;39559;48.630;9.162;2022-09-09T11:23:47;97199.91;;;15.59;100.00
498;BME280;39559;48.630;9.162;2022-09-09T11:26:29;97215.69;;;15.44;100.00
498;BME280;39559;48.630;9.162;2022-09-09T11:31:54;97225.00;;;15.76;100.00
498;BME280;39559;48.630;9.162;2022-09-09T11:34:31;97221.66;;;15.99;100.00
498;BME280;39559;48.630;9.162;2022-09-09T11:39:54;97210.38;;;16.36;100.00
498;BME280;39559;48.630;9.162;2022-09-09T11:42:31;97196.66;;;16.32;100.00
498;BME280;39559;48.630;9.162;2022-09-09T11:45:09;97197.34;;;16.47;100.00
498;BME280;39559;48.630;9.162;2022-09-09T11:47:36;97181.25;;;16.64;100.00
498;BME280;39559;48.630;9.162;2022-09-09T11:52:45;97193.59;;;16.38;96.17
498;BME280;39559;48.630;9.162;2022-09-09T11:58:06;97191.13;;;16.61;99.94
498;BME280;39559;48.630;9.162;2022-09-09T12:00:48;97178.25;;;16.82;94.66
498;BME280;39559;48.630;9.162;2022-09-09T12:03:46;97182.75;;;16.80;93.79
498;BME280;39559;48.630;9.162;2022-09-09T12:06:31;97184.00;;;17.46;94.14
498;BME280;39559;48.630;9.162;2022-09-09T12:09:08;97178.22;;;18.33;85.67
498;BME280;39559;48.630;9.162;2022-09-09T12:11:36;97180.75;;;19.22;85.51
498;BME280;39559;48.630;9.162;2022-09-09T12:14:02;97174.50;;;19.55;71.39
498;BME280;39559;48.630;9.162;2022-09-09T12:16:36;97185.84;;;19.98;73.08
498;BME280;39559;48.630;9.162;2022-09-09T12:19:15;97176.25;;;19.97;64.56
498;BME280;39559;48.630;9.162;2022-09-09T12:27:08;97170.19;;;20.47;61.45
498;BME280;39559;48.630;9.162;2022-09-09T12:30:31;97161.06;;;20.61;63.13
498;BME280;39559;48.630;9.162;2022-09-09T12:33:10;97162.69;;;20.02;60.67
498;BME280;39559;48.630;9.162;2022-09-09T12:35:36;97166.19;;;19.39;66.23
498;BME280;39559;48.630;9.162;2022-09-09T12:38:05;97167.16;;;19.38;67.63
498;BME280;39559;48.630;9.162;2022-09-09T12:40:36;97160.06;;;19.81;66.98
498;BME280;39559;48.630;9.162;2022-09-09T12:43:20;97151.44;;;20.00;61.86
498;BME280;39559;48.630;9.162;2022-09-09T12:45:47;97154.75;;;20.32;68.07
498;BME280;39559;48.630;9.162;2022-09-09T12:48:18;97157.50;;;20.81;69.31
498;BME280;39559;48.630;9.162;2022-09-09T12:50:50;97150.47;;;20.41;69.10
498;BME280;39559;48.630;9.162;2022-09-09T12:54:21;97166.34;;;19.80;65.28
498;BME280;39559;48.630;9.162;2022-09-09T12:56:48;97153.22;;;19.47;70.00
498;BME280;39559;48.630;9.162;2022-09-09T12:59:38;97153.44;;;19.86;65.57
498;BME280;39559;48.630;9.162;2022-09-09T13:02:26;97150.25;;;19.83;64.08
498;BME280;39559;48.630;9.162;2022-09-09T13:04:52;97144.75;;;19.65;63.10
498;BME280;39559;48.630;9.162;2022-09-09T13:07:20;97152.31;;;19.37;63.30
498;BME280;39559;48.630;9.162;2022-09-09T13:09:48;97152.31;;;19.37;65.64
498;BME280;39559;48.630;9.162;2022-09-09T13:12:18;97150.91;;;19.75;67.17
498;BME280;39559;48.630;9.162;2022-09-09T13:14:46;97153.53;;;19.75;65.18
498;BME280;39559;48.630;9.162;2022-09-09T13:18:23;97134.84;;;19.36;66.02
498;BME280;39559;48.630;9.162;2022-09-09T13:20:50;97132.06;;;20.10;70.75
498;BME280;39559;48.630;9.162;2022-09-09T13:23:18;97124.75;;;20.33;66.86
498;BME280;39559;48.630;9.162;2022-09-09T13:25:59;97116.84;;;20.33;66.35
498;BME280;39559;48.630;9.162;2022-09-09T13:28:30;97125.56;;;20.24;66.90
498;BME280;39559;48.630;9.162;2022-09-09T13:31:01;97130.34;;;20.00;63.47
498;BME280;39559;48.630;9.162;2022-09-09T13:33:35;97129.91;;;19.94;64.43
498;BME280;39559;48.630;9.162;2022-09-09T13:36:05;97129.09;;;19.94;67.06
498;BME280;39559;48.630;9.162;2022-09-09T13:38:54;97127.16;;;19.96;64.20
498;BME280;39559;48.630;9.162;2022-09-09T13:42:26;97131.94;;;20.12;63.21
498;BME280;39559;48.630;9.162;2022-09-09T13:44:53;97135.66;;;20.19;63.51
498;BME280;39559;48.630;9.162;2022-09-09T13:47:39;97121.66;;;20.09;64.32
498;BME280;39559;48.630;9.162;2022-09-09T13:50:27;97129.22;;;19.92;61.57
498;BME280;39559;48.630;9.162;2022-09-09T13:52:57;97127.16;;;19.96;62.10
498;BME280;39559;48.630;9.162;2022-09-09T13:55:25;97115.94;;;20.04;60.93
498;BME280;39559;48.630;9.162;2022-09-09T13:57:56;97123.69;;;19.96;64.30
498;BME280;39559;48.630;9.162;2022-09-09T14:00:23;97118.03;;;20.10;59.73
498;BME280;39559;48.630;9.162;2022-09-09T14:02:49;97117.31;;;19.98;59.74
498;BME280;39559;48.630;9.162;2022-09-09T14:06:12;97116.03;;;19.92;57.74
498;BME280;39559;48.630;9.162;2022-09-09T14:08:38;97098.03;;;19.98;57.88
498;BME280;39559;48.630;9.162;2022-09-09T14:11:05;97099.31;;;20.13;58.25
498;BME280;39559;48.630;9.162;2022-09-09T14:13:32;97096.44;;;20.26;58.98
498;BME280;39559;48.630;9.162;2022-09-09T14:15:57;97105.91;;;20.48;59.62
498;BME280;39559;48.630;9.162;2022-09-09T14:18:23;97102.97;;;20.31;58.15
498;BME280;39559;48.630;9.162;2022-09-09T14:20:51;97104.06;;;20.29;57.59
498;BME280;39559;48.630;9.162;2022-09-09T14:23:16;97111.72;;;20.32;56.72
498;BME280;39559;48.630;9.162;2022-09-09T14:25:43;97112.28;;;20.36;58.42
498;BME280;39559;48.630;9.162;2022-09-09T14:30:07;97121.47;;;20.51;56.28
498;BME280;39559;48.630;9.162;2022-09-09T14:32:33;97108.53;;;20.38;53.82
498;BME280;39559;48.630;9.162;2022-09-09T14:34:58;97107.53;;;20.20;54.45
498;BME280;39559;48.630;9.162;2022-09-09T14:37:24;97105.97;;;20.07;54.33
498;BME280;39559;48.630;9.162;2022-09-09T14:39:49;97101.06;;;20.53;56.10
498;BME280;39559;48.630;9.162;2022-09-09T14:42:16;97090.41;;;20.74;56.66
498;BME280;39559;48.630;9.162;2022-09-09T14:44:42;97099.09;;;20.55;56.28
498;BME280;39559;48.630;9.162;2022-09-09T14:47:08;97098.88;;;20.68;54.18
498;BME280;39559;48.630;9.162;2022-09-09T14:49:35;97097.16;;;20.57;54.85
498;BME280;39559;48.630;9.162;2022-09-09T14:54:02;97110.91;;;20.51;53.14
498;BME280;39559;48.630;9.162;2022-09-09T14:56:30;97107.31;;;20.52;54.36
498;BME280;39559;48.630;9.162;2022-09-09T14:58:58;97095.09;;;20.41;51.57
498;BME280;39559;48.630;9.162;2022-09-09T15:01:24;97100.19;;;20.33;52.61
498;BME280;39559;48.630;9.162;2022-09-09T15:03:59;97101.75;;;20.36;53.09
498;BME280;39559;48.630;9.162;2022-09-09T15:06:27;97101.88;;;20.53;53.84
498;BME280;39559;48.630;9.162;2022-09-09T15:08:55;97102.38;;;20.68;53.28
498;BME280;39559;48.630;9.162;2022-09-09T15:11:27;97117.88;;;20.52;53.76
498;BME280;39559;48.630;9.162;2022-09-09T15:13:53;97112.50;;;20.13;55.50
498;BME280;39559;48.630;9.162;2022-09-09T15:17:57;97110.22;;;19.99;56.54
498;BME280;39559;48.630;9.162;2022-09-09T15:20:23;97103.25;;;20.28;56.12
498;BME280;39559;48.630;9.162;2022-09-09T15:22:48;97101.31;;;20.40;57.83
498;BME280;39559;48.630;9.162;2022-09-09T15:25:16;97094.25;;;20.50;57.43
498;BME280;39559;48.630;9.162;2022-09-09T15:27:43;97088.13;;;20.50;55.34
498;BME280;39559;48.630;9.162;2022-09-09T15:30:09;97091.28;;;20.24;55.58
498;BME280;39559;48.630;9.162;2022-09-09T15:32:35;97101.63;;;19.97;54.96
498;BME280;39559;48.630;9.162;2022-09-09T15:35:00;97100.22;;;19.62;54.61
498;BME280;39559;48.630;9.162;2022-09-09T15:37:26;97092.06;;;19.44;55.43
498;BME280;39559;48.630;9.162;2022-09-09T15:41:53;97095.72;;;19.52;58.47
498;BME280;39559;48.630;9.162;2022-09-09T15:44:18;97096.00;;;19.28;54.84
498;BME280;39559;48.630;9.162;2022-09-09T15:46:51;97104.59;;;19.09;57.74
498;BME280;39559;48.630;9.162;2022-09-09T15:49:25;97100.09;;;19.00;56.91
498;BME280;39559;48.630;9.162;2022-09-09T15:51:56;97110.00;;;18.87;58.70
498;BME280;39559;48.630;9.162;2022-09-09T15:54:23;97108.69;;;18.81;58.48
498;BME280;39559;48.630;9.162;2022-09-09T15:56:54;97131.66;;;18.68;58.79
498;BME280;39559;48.630;9.162;2022-09-09T15:59:25;97122.66;;;18.38;57.02
498;BME280;39559;48.630;9.162;2022-09-09T16:01:52;97117.31;;;18.28;58.81
498;BME280;39559;48.630;9.162;2022-09-09T16:05:51;97140.59;;;18.33;58.69
498;BME280;39559;48.630;9.162;2022-09-09T16:08:16;97130.22;;;18.20;60.37